EUFO2: Eufaula Lake

Data processed at Sat Jul 14 2018 23:09


All information presented herein is the property of the government of the United States of America and may be revised or deleted at any time without prior notice.
Dissemination of this information without the expressed written consent of the Public Affairs Office, Tulsa District U.S. Army Corps of Engineers is strictly prohibited.
These data are gathered electronically and, as presented, have not undergone any form of quality control. These data are not guaranteed to be valid or correct.
Go to home page.
Go to station list.

Upstream stations:

Downstream station:
Previous Day
Next Day
Current Day
    
SHEF ID:       EUFO2     Eufaula Lake
STATION TYPE:  RESERVOIR
Normal Pool:  Bottom =   565.00, Top =   585.00

               PRECIP ELEVATION   STORAGE   TW-ELEV    INFLOW   RELEASE  AIR-TEMP  WIND-DIRWIND-SPEED REL-HUMID SOLAR-RAD   VOLTAGE  BAT-LOAD
                   in        ft     ac-ft        ft       cfs       cfs         F       deg       mph         %      W/m2      volt      volt
              Ccp-Rev   Ccp-Rev   Ccp-Rev   Ccp-Rev  Regi-Rev  Regi-Rev   Ccp-Rev   Ccp-Rev   Ccp-Rev   Ccp-Rev   Ccp-Rev   Ccp-Rev   Ccp-Rev
(US/Central)
07/12 00:00      0.00    586.49   2336804    483.83         0        31     81.97    135.90      0.72     80.58      0.00     13.82     13.59
07/12 01:00      0.00    586.50   2337771    483.53         0        31     83.28    121.90      0.47     67.09      0.00     13.82     13.59
07/12 02:00      0.00    586.50   2337771    483.30         0        31     78.67    100.90      0.73     80.39      0.00     13.82     13.59
07/12 03:00      0.00    586.50   2337771    483.13         0        31     75.92    124.20      0.89     88.82      0.00     13.82     13.59
07/12 04:00      0.00    586.49   2336804    482.99         0        31     75.49    125.70      1.75     91.38      0.00     13.82     13.59
07/12 05:00      0.00    586.48   2335837    482.90         0        31     73.85    124.60      1.00     94.75      0.00     13.81     13.59
07/12 06:00      0.00    586.49   2336804    482.83         0        31     73.40    126.30      2.01     96.57      0.00     13.81     13.59
07/12 07:00      0.00    586.49   2336804    482.79         1        31     72.73    126.70      2.33     96.87      9.00     13.81     13.59
07/12 08:00      0.00    586.49   2336804    482.76         2        31     78.55    130.70      3.28     83.08     40.00     13.81     13.59
07/12 09:00      0.00    586.50   2337771    482.75         3        31     82.08    117.80      3.76     73.74     57.00     13.82     13.59
07/12 10:00      0.00    586.51   2338738    482.74         3        31     85.93    114.10      2.15     64.65    356.00     13.81     13.59
07/12 11:00      0.00    586.51   2338738    482.73         3        31     89.78    158.30      0.40     58.30    690.00     13.82     13.59
07/12 12:00      0.00    586.50   2337771    483.79         2        31     87.67    259.90      1.04     60.07    672.00     13.82     13.59
07/12 13:00      0.00    586.48   2335837    486.55         1      7896     89.11    290.90      5.08     60.68    686.00     13.82     13.59
07/12 14:00      0.00    586.47   2334870    488.50         9     11682     90.97    306.60      0.75     53.23   1016.00     13.82     13.59
07/12 15:00      0.00    586.45   2332936    488.96        18     11629     92.75    197.80      0.52     47.86    714.00     13.82     13.59
07/12 16:00      0.00    586.44   2331969    489.06        27     12070     95.14    241.10      0.73     36.99    757.00     13.82     13.59
07/12 17:00      0.00    586.43   2331002    489.11       423     12160     94.26    104.70      3.74     38.09    729.00     13.82     13.59
07/12 18:00      0.00    586.42   2330035    489.17       552     12160     94.17    119.90      3.62     37.67    569.00     13.82     13.59
07/12 19:00      0.00    586.43   2331002    488.71       544      6854     94.50    117.70      3.44     43.28    381.00     13.83     13.59
07/12 20:00      0.00    586.42   2330035    486.56       534        31     84.60    123.70     10.74     59.21    180.00     13.83     13.59
07/12 21:00      0.00    586.42   2330035    485.46       524        31     81.97    142.50      5.89     60.98     21.00     13.83     13.59
07/12 22:00      0.00    586.45   2332936    484.73       129        31     81.86    102.60      2.29     61.29      0.00     13.83     13.59
07/12 23:00      0.00    586.46   2333903    484.22         0        31     81.30    118.00      1.64     63.30      0.00     13.82     13.59